AAN107 LECU-LESA
Flight info
| Callsign | AAN107 |
|---|---|
| Flight time | 0h 39m |
| Altitude | 6500 |
| Route | VFR |
| Aircraft | BE35/L-SDEG/C |
Departure
| Time | 2026-05-04 13:42 |
|---|---|
| Airport | Madrid-Cuatro Vientos Airport (LECU) |
Arrival
| Time | 2026-05-04 14:21 |
|---|---|
| Airport | Salamanca Airport (LESA) |
| Time | Latitude | Longitude | Altitude | Speed | Heading |
|---|---|---|---|---|---|
| 2026-05-04 13:28 | 40.36919 | -3.77873 | 2261 ft | 0 kts | 4° |
| 2026-05-04 13:33 | 40.36920 | -3.77873 | 2261 ft | 0 kts | 4° |
| 2026-05-04 13:34 | 40.36931 | -3.77875 | 2261 ft | 3 kts | 320° |
| 2026-05-04 13:34 | 40.36945 | -3.77907 | 2261 ft | 1 kts | 355° |
| 2026-05-04 13:34 | 40.36950 | -3.77894 | 2261 ft | 4 kts | 90° |
| 2026-05-04 13:34 | 40.36947 | -3.77824 | 2261 ft | 10 kts | 92° |
| 2026-05-04 13:35 | 40.36940 | -3.77706 | 2262 ft | 13 kts | 92° |
| 2026-05-04 13:35 | 40.36961 | -3.77657 | 2262 ft | 0 kts | 3° |
| 2026-05-04 13:40 | 40.36975 | -3.77654 | 2262 ft | 5 kts | 6° |
| 2026-05-04 13:40 | 40.37021 | -3.77685 | 2262 ft | 10 kts | 294° |
| 2026-05-04 13:41 | 40.37032 | -3.77826 | 2262 ft | 31 kts | 273° |
| 2026-05-04 13:41 | 40.37058 | -3.78272 | 2288 ft | 62 kts | 270° |
| 2026-05-04 13:41 | 40.37129 | -3.78832 | 2481 ft | 62 kts | 275° |
| 2026-05-04 13:42 | 40.37650 | -3.79833 | 2901 ft | 72 kts | 303° |
| 2026-05-04 13:42 | 40.38060 | -3.80259 | 3118 ft | 81 kts | 315° |
| 2026-05-04 13:42 | 40.38444 | -3.80793 | 3234 ft | 92 kts | 303° |
| 2026-05-04 13:42 | 40.38876 | -3.81504 | 3240 ft | 106 kts | 302° |
| 2026-05-04 13:43 | 40.39351 | -3.82293 | 3268 ft | 113 kts | 303° |
| 2026-05-04 13:43 | 40.39770 | -3.83174 | 3282 ft | 115 kts | 289° |
| 2026-05-04 13:43 | 40.40030 | -3.84186 | 3316 ft | 120 kts | 282° |
| 2026-05-04 13:43 | 40.40207 | -3.85276 | 3317 ft | 124 kts | 277° |
| 2026-05-04 13:44 | 40.40330 | -3.86452 | 3315 ft | 140 kts | 275° |
| 2026-05-04 13:44 | 40.40451 | -3.87776 | 3294 ft | 150 kts | 274° |
| 2026-05-04 13:44 | 40.40752 | -3.89110 | 3290 ft | 157 kts | 292° |
| 2026-05-04 13:44 | 40.41242 | -3.90369 | 3462 ft | 148 kts | 294° |
| 2026-05-04 13:45 | 40.41722 | -3.91496 | 3772 ft | 135 kts | 295° |
| 2026-05-04 13:45 | 40.42183 | -3.92531 | 4096 ft | 128 kts | 295° |
| 2026-05-04 13:45 | 40.42620 | -3.93520 | 4417 ft | 123 kts | 296° |
| 2026-05-04 13:45 | 40.43044 | -3.94482 | 4731 ft | 121 kts | 295° |
| 2026-05-04 13:46 | 40.43459 | -3.95424 | 5018 ft | 118 kts | 295° |
| 2026-05-04 13:46 | 40.43863 | -3.96337 | 5309 ft | 115 kts | 296° |
| 2026-05-04 13:46 | 40.44260 | -3.97240 | 5608 ft | 113 kts | 296° |
| 2026-05-04 13:46 | 40.44647 | -3.98119 | 5903 ft | 109 kts | 296° |
| 2026-05-04 13:47 | 40.45027 | -3.98987 | 6137 ft | 112 kts | 295° |
| 2026-05-04 13:47 | 40.45419 | -3.99898 | 6305 ft | 117 kts | 296° |
| 2026-05-04 13:47 | 40.45819 | -4.00855 | 6451 ft | 123 kts | 294° |
| 2026-05-04 13:47 | 40.46226 | -4.01880 | 6522 ft | 131 kts | 294° |
| 2026-05-04 13:48 | 40.46657 | -4.02988 | 6566 ft | 140 kts | 294° |
| 2026-05-04 13:48 | 40.47100 | -4.04144 | 6560 ft | 146 kts | 294° |
| 2026-05-04 13:48 | 40.47550 | -4.05345 | 6566 ft | 147 kts | 294° |
| 2026-05-04 13:48 | 40.48006 | -4.06570 | 6600 ft | 152 kts | 294° |
| 2026-05-04 13:49 | 40.48470 | -4.07823 | 6593 ft | 153 kts | 294° |
| 2026-05-04 13:49 | 40.48936 | -4.09086 | 6592 ft | 154 kts | 294° |
| 2026-05-04 13:49 | 40.49248 | -4.09942 | 6577 ft | 153 kts | 293° |
| 2026-05-04 13:49 | 40.49708 | -4.11193 | 6578 ft | 151 kts | 294° |
| 2026-05-04 13:50 | 40.50155 | -4.12419 | 6578 ft | 150 kts | 293° |
| 2026-05-04 13:50 | 40.50604 | -4.13650 | 6584 ft | 149 kts | 293° |
| 2026-05-04 13:50 | 40.51054 | -4.14884 | 6597 ft | 150 kts | 294° |
| 2026-05-04 13:50 | 40.51498 | -4.16129 | 6597 ft | 151 kts | 293° |
| 2026-05-04 13:51 | 40.51948 | -4.17379 | 6596 ft | 152 kts | 294° |
| 2026-05-04 13:51 | 40.52403 | -4.18631 | 6599 ft | 152 kts | 294° |
| 2026-05-04 13:51 | 40.52858 | -4.19882 | 6590 ft | 151 kts | 293° |
| 2026-05-04 13:51 | 40.53311 | -4.21124 | 6589 ft | 150 kts | 293° |
| 2026-05-04 13:52 | 40.54194 | -4.23610 | 6604 ft | 150 kts | 294° |
| 2026-05-04 13:52 | 40.54628 | -4.24867 | 6609 ft | 152 kts | 294° |
| 2026-05-04 13:52 | 40.55067 | -4.26134 | 6589 ft | 152 kts | 292° |
| 2026-05-04 13:53 | 40.55510 | -4.27381 | 6561 ft | 149 kts | 293° |
| 2026-05-04 13:53 | 40.55943 | -4.28594 | 6581 ft | 146 kts | 293° |
| 2026-05-04 13:53 | 40.56364 | -4.29783 | 6595 ft | 145 kts | 294° |
| 2026-05-04 13:54 | 40.57217 | -4.32213 | 6607 ft | 148 kts | 294° |
| 2026-05-04 13:54 | 40.57647 | -4.33446 | 6593 ft | 149 kts | 293° |
| 2026-05-04 13:54 | 40.58499 | -4.35926 | 6599 ft | 148 kts | 293° |
| 2026-05-04 13:55 | 40.58921 | -4.37168 | 6602 ft | 148 kts | 293° |
| 2026-05-04 13:55 | 40.59784 | -4.39655 | 6601 ft | 150 kts | 293° |
| 2026-05-04 13:55 | 40.60215 | -4.40891 | 6611 ft | 152 kts | 293° |
| 2026-05-04 13:56 | 40.60658 | -4.42166 | 6618 ft | 154 kts | 294° |
| 2026-05-04 13:56 | 40.61095 | -4.43444 | 6598 ft | 153 kts | 293° |
| 2026-05-04 13:56 | 40.61958 | -4.45987 | 6591 ft | 151 kts | 293° |
| 2026-05-04 13:57 | 40.62386 | -4.47252 | 6613 ft | 152 kts | 293° |
| 2026-05-04 13:57 | 40.62817 | -4.48535 | 6615 ft | 154 kts | 293° |
| 2026-05-04 13:58 | 40.64131 | -4.52434 | 6604 ft | 155 kts | 293° |
| 2026-05-04 13:58 | 40.64993 | -4.55014 | 6603 ft | 155 kts | 293° |
| 2026-05-04 13:58 | 40.65426 | -4.56310 | 6600 ft | 155 kts | 293° |
| 2026-05-04 13:59 | 40.65866 | -4.57603 | 6599 ft | 155 kts | 293° |
| 2026-05-04 13:59 | 40.66305 | -4.58894 | 6597 ft | 154 kts | 293° |
| 2026-05-04 13:59 | 40.67175 | -4.61462 | 6597 ft | 153 kts | 293° |
| 2026-05-04 14:00 | 40.67610 | -4.62742 | 6603 ft | 153 kts | 293° |
| 2026-05-04 14:00 | 40.68484 | -4.65311 | 6605 ft | 154 kts | 293° |
| 2026-05-04 14:00 | 40.68920 | -4.66598 | 6600 ft | 154 kts | 293° |
| 2026-05-04 14:01 | 40.69359 | -4.67887 | 6596 ft | 153 kts | 293° |
| 2026-05-04 14:01 | 40.69813 | -4.69156 | 6594 ft | 153 kts | 296° |
| 2026-05-04 14:01 | 40.70872 | -4.71552 | 6603 ft | 152 kts | 300° |
| 2026-05-04 14:02 | 40.71432 | -4.72744 | 6602 ft | 153 kts | 300° |
| 2026-05-04 14:02 | 40.71998 | -4.73937 | 6600 ft | 154 kts | 300° |
| 2026-05-04 14:02 | 40.72566 | -4.75130 | 6592 ft | 153 kts | 300° |
| 2026-05-04 14:02 | 40.73125 | -4.76318 | 6593 ft | 152 kts | 300° |
| 2026-05-04 14:03 | 40.73684 | -4.77505 | 6594 ft | 153 kts | 300° |
| 2026-05-04 14:03 | 40.74243 | -4.78693 | 6593 ft | 152 kts | 300° |
| 2026-05-04 14:03 | 40.74803 | -4.79882 | 6600 ft | 152 kts | 300° |
| 2026-05-04 14:03 | 40.75365 | -4.81064 | 6589 ft | 152 kts | 300° |
| 2026-05-04 14:04 | 40.76484 | -4.83397 | 6598 ft | 151 kts | 300° |
| 2026-05-04 14:04 | 40.77041 | -4.84575 | 6589 ft | 151 kts | 300° |
| 2026-05-04 14:04 | 40.77598 | -4.85749 | 6601 ft | 151 kts | 300° |
| 2026-05-04 14:05 | 40.78717 | -4.88108 | 6600 ft | 152 kts | 300° |
| 2026-05-04 14:05 | 40.79279 | -4.89294 | 6597 ft | 152 kts | 300° |
| 2026-05-04 14:05 | 40.79842 | -4.90482 | 6601 ft | 153 kts | 300° |
| 2026-05-04 14:06 | 40.80399 | -4.91658 | 6593 ft | 153 kts | 300° |
| 2026-05-04 14:06 | 40.80967 | -4.92842 | 6592 ft | 153 kts | 300° |
| 2026-05-04 14:06 | 40.81544 | -4.94032 | 6532 ft | 156 kts | 300° |
| 2026-05-04 14:06 | 40.82137 | -4.95260 | 6403 ft | 161 kts | 300° |
| 2026-05-04 14:07 | 40.82743 | -4.96521 | 6274 ft | 163 kts | 300° |
| 2026-05-04 14:07 | 40.83353 | -4.97788 | 6123 ft | 163 kts | 300° |
| 2026-05-04 14:07 | 40.83964 | -4.99055 | 5965 ft | 164 kts | 300° |
| 2026-05-04 14:07 | 40.84576 | -5.00321 | 5807 ft | 163 kts | 300° |
| 2026-05-04 14:08 | 40.85183 | -5.01579 | 5658 ft | 161 kts | 300° |
| 2026-05-04 14:08 | 40.85781 | -5.02826 | 5523 ft | 160 kts | 301° |
| 2026-05-04 14:08 | 40.86372 | -5.04071 | 5403 ft | 160 kts | 300° |
| 2026-05-04 14:08 | 40.86964 | -5.05315 | 5280 ft | 159 kts | 300° |
| 2026-05-04 14:09 | 40.88063 | -5.07828 | 5030 ft | 158 kts | 296° |
| 2026-05-04 14:09 | 40.88572 | -5.09118 | 4906 ft | 158 kts | 295° |
| 2026-05-04 14:10 | 40.89454 | -5.11778 | 4681 ft | 158 kts | 290° |
| 2026-05-04 14:10 | 40.89834 | -5.13140 | 4590 ft | 157 kts | 289° |
| 2026-05-04 14:10 | 40.90187 | -5.14493 | 4549 ft | 154 kts | 287° |
| 2026-05-04 14:10 | 40.90507 | -5.15827 | 4532 ft | 150 kts | 286° |
| 2026-05-04 14:11 | 40.90802 | -5.17128 | 4519 ft | 146 kts | 285° |
| 2026-05-04 14:11 | 40.91356 | -5.19752 | 4344 ft | 153 kts | 282° |
| 2026-05-04 14:11 | 40.91585 | -5.21132 | 4231 ft | 157 kts | 281° |
| 2026-05-04 14:12 | 40.91799 | -5.22547 | 4100 ft | 157 kts | 280° |
| 2026-05-04 14:12 | 40.92013 | -5.23964 | 3977 ft | 157 kts | 280° |
| 2026-05-04 14:12 | 40.92421 | -5.26802 | 3728 ft | 156 kts | 280° |
| 2026-05-04 14:13 | 40.92619 | -5.28184 | 3610 ft | 150 kts | 279° |
| 2026-05-04 14:13 | 40.92825 | -5.29521 | 3587 ft | 147 kts | 280° |
| 2026-05-04 14:13 | 40.93031 | -5.30843 | 3564 ft | 146 kts | 281° |
| 2026-05-04 14:13 | 40.93219 | -5.32150 | 3554 ft | 142 kts | 281° |
| 2026-05-04 14:14 | 40.93404 | -5.33419 | 3565 ft | 139 kts | 279° |
| 2026-05-04 14:14 | 40.93784 | -5.35891 | 3562 ft | 137 kts | 279° |
| 2026-05-04 14:14 | 40.93975 | -5.37131 | 3558 ft | 138 kts | 280° |
| 2026-05-04 14:15 | 40.94321 | -5.39569 | 3502 ft | 133 kts | 280° |
| 2026-05-04 14:15 | 40.94658 | -5.41963 | 3513 ft | 133 kts | 280° |
| 2026-05-04 14:16 | 40.94994 | -5.44366 | 3509 ft | 133 kts | 280° |
| 2026-05-04 14:16 | 40.95155 | -5.45568 | 3491 ft | 131 kts | 278° |
| 2026-05-04 14:17 | 40.95450 | -5.47762 | 3501 ft | 135 kts | 323° |
| 2026-05-04 14:17 | 40.96397 | -5.47846 | 3488 ft | 148 kts | 17° |
| 2026-05-04 14:17 | 40.97888 | -5.45964 | 3505 ft | 156 kts | 54° |
| 2026-05-04 14:18 | 40.98522 | -5.44843 | 3489 ft | 144 kts | 28° |
| 2026-05-04 14:18 | 40.99746 | -5.45443 | 3486 ft | 94 kts | 291° |
| 2026-05-04 14:19 | 40.99354 | -5.46817 | 3515 ft | 96 kts | 220° |
| 2026-05-04 14:19 | 40.98848 | -5.47349 | 3342 ft | 91 kts | 229° |
| 2026-05-04 14:19 | 40.98347 | -5.47882 | 3120 ft | 88 kts | 227° |
| 2026-05-04 14:19 | 40.97850 | -5.48319 | 2963 ft | 88 kts | 216° |
| 2026-05-04 14:20 | 40.97331 | -5.48696 | 2832 ft | 85 kts | 219° |
| 2026-05-04 14:20 | 40.96815 | -5.49063 | 2709 ft | 85 kts | 216° |
| 2026-05-04 14:20 | 40.96305 | -5.49431 | 2624 ft | 82 kts | 217° |
| 2026-05-04 14:21 | 40.95664 | -5.49900 | 2592 ft | 14 kts | 211° |
| 2026-05-04 14:21 | 40.95567 | -5.49962 | 2590 ft | 17 kts | 205° |
| 2026-05-04 14:21 | 40.95452 | -5.50039 | 2593 ft | 20 kts | 211° |
| 2026-05-04 14:21 | 40.95328 | -5.50139 | 2588 ft | 15 kts | 214° |
| 2026-05-04 14:22 | 40.95286 | -5.50138 | 2594 ft | 7 kts | 145° |
| 2026-05-04 14:22 | 40.95264 | -5.50071 | 2593 ft | 7 kts | 86° |
| 2026-05-04 14:22 | 40.95267 | -5.50050 | 2592 ft | 1 kts | 78° |
| 2026-05-04 14:22 | 40.95263 | -5.49987 | 2592 ft | 11 kts | 96° |
| 2026-05-04 14:23 | 40.95197 | -5.49947 | 2592 ft | 2 kts | 200° |
| 2026-05-04 14:23 | 40.95161 | -5.49970 | 2593 ft | 9 kts | 211° |
| 2026-05-04 14:23 | 40.95079 | -5.50027 | 2593 ft | 17 kts | 211° |
| 2026-05-04 14:24 | 40.94956 | -5.50116 | 2594 ft | 21 kts | 207° |
| 2026-05-04 14:24 | 40.94817 | -5.50212 | 2591 ft | 24 kts | 207° |
| 2026-05-04 14:24 | 40.94711 | -5.50284 | 2595 ft | 10 kts | 198° |
| 2026-05-04 14:24 | 40.94648 | -5.50228 | 2595 ft | 15 kts | 115° |
| 2026-05-04 14:25 | 40.94604 | -5.50078 | 2591 ft | 18 kts | 110° |
| 2026-05-04 14:25 | 40.94522 | -5.49873 | 2593 ft | 6 kts | 185° |
| 2026-05-04 14:25 | 40.94527 | -5.49903 | 2595 ft | 7 kts | 301° |
| 2026-05-04 14:26 | 40.94556 | -5.49979 | 2591 ft | 12 kts | 296° |
| 2026-05-04 14:26 | 40.94595 | -5.50093 | 2590 ft | 15 kts | 294° |
| 2026-05-04 14:26 | 40.94647 | -5.50234 | 2590 ft | 17 kts | 294° |
| 2026-05-04 14:26 | 40.94625 | -5.50340 | 2595 ft | 14 kts | 215° |
| 2026-05-04 14:27 | 40.94533 | -5.50413 | 2594 ft | 14 kts | 207° |
| 2026-05-04 14:27 | 40.94461 | -5.50383 | 2596 ft | 14 kts | 124° |
| 2026-05-04 14:27 | 40.94403 | -5.50252 | 2596 ft | 15 kts | 113° |
| 2026-05-04 14:27 | 40.94367 | -5.50139 | 2596 ft | 13 kts | 99° |
| 2026-05-04 14:28 | 40.94357 | -5.50117 | 2590 ft | 2 kts | 202° |